sensor_id;sensor_type;location;lat;lon;timestamp;pressure;altitude;pressure_sealevel;temperature;humidity
71126;BME280;58785;55.566;38.058;2023-05-23T00:00:36;100680.50;;;12.81;79.27
71126;BME280;58785;55.566;38.058;2023-05-23T00:03:02;100686.84;;;12.80;78.97
71126;BME280;58785;55.566;38.058;2023-05-23T00:05:28;100676.44;;;12.77;79.46
71126;BME280;58785;55.566;38.058;2023-05-23T00:07:54;100681.94;;;12.75;78.84
71126;BME280;58785;55.566;38.058;2023-05-23T00:10:21;100679.41;;;12.74;79.36
71126;BME280;58785;55.566;38.058;2023-05-23T00:12:47;100690.69;;;12.68;79.36
71126;BME280;58785;55.566;38.058;2023-05-23T00:15:13;100675.38;;;12.60;79.49
71126;BME280;58785;55.566;38.058;2023-05-23T00:17:39;100679.19;;;12.57;79.10
71126;BME280;58785;55.566;38.058;2023-05-23T00:20:05;100680.88;;;12.58;79.22
71126;BME280;58785;55.566;38.058;2023-05-23T00:22:35;100682.00;;;12.56;79.61
71126;BME280;58785;55.566;38.058;2023-05-23T00:25:05;100685.13;;;12.51;79.72
71126;BME280;58785;55.566;38.058;2023-05-23T00:27:31;100665.31;;;12.44;79.62
71126;BME280;58785;55.566;38.058;2023-05-23T00:29:56;100676.53;;;12.48;79.61
71126;BME280;58785;55.566;38.058;2023-05-23T00:32:22;100685.56;;;12.47;79.08
71126;BME280;58785;55.566;38.058;2023-05-23T00:34:48;100678.53;;;12.46;79.26
71126;BME280;58785;55.566;38.058;2023-05-23T00:37:13;100670.38;;;12.37;79.75
71126;BME280;58785;55.566;38.058;2023-05-23T00:39:39;100677.69;;;12.45;79.38
71126;BME280;58785;55.566;38.058;2023-05-23T00:42:05;100672.59;;;12.42;79.71
71126;BME280;58785;55.566;38.058;2023-05-23T00:44:32;100667.25;;;12.42;79.42
71126;BME280;58785;55.566;38.058;2023-05-23T00:46:58;100672.19;;;12.47;79.83
71126;BME280;58785;55.566;38.058;2023-05-23T00:49:24;100679.53;;;12.45;79.76
71126;BME280;58785;55.566;38.058;2023-05-23T00:51:52;100677.69;;;12.45;79.85
71126;BME280;58785;55.566;38.058;2023-05-23T00:54:25;100677.84;;;12.44;79.27
71126;BME280;58785;55.566;38.058;2023-05-23T00:56:52;100692.06;;;12.44;79.17
71126;BME280;58785;55.566;38.058;2023-05-23T00:59:18;100683.44;;;12.41;79.17
71126;BME280;58785;55.566;38.058;2023-05-23T01:01:47;100675.59;;;12.39;79.70
71126;BME280;58785;55.566;38.058;2023-05-23T01:04:13;100669.13;;;12.32;79.74
71126;BME280;58785;55.566;38.058;2023-05-23T01:06:41;100661.53;;;12.27;79.29
71126;BME280;58785;55.566;38.058;2023-05-23T01:09:17;100681.53;;;12.33;79.73
71126;BME280;58785;55.566;38.058;2023-05-23T01:12:13;100683.22;;;12.34;78.98
71126;BME280;58785;55.566;38.058;2023-05-23T01:15:14;100677.03;;;12.33;79.48
71126;BME280;58785;55.566;38.058;2023-05-23T01:18:00;100669.13;;;12.32;79.11
71126;BME280;58785;55.566;38.058;2023-05-23T01:20:40;100676.19;;;12.33;79.17
71126;BME280;58785;55.566;38.058;2023-05-23T01:23:31;100668.16;;;12.33;79.31
71126;BME280;58785;55.566;38.058;2023-05-23T01:28:37;100649.00;;;12.28;78.84
71126;BME280;58785;55.566;38.058;2023-05-23T01:31:07;100666.03;;;12.36;79.02
71126;BME280;58785;55.566;38.058;2023-05-23T01:33:35;100662.34;;;12.37;78.50
71126;BME280;58785;55.566;38.058;2023-05-23T01:36:02;100660.97;;;12.33;78.93
71126;BME280;58785;55.566;38.058;2023-05-23T01:38:28;100675.44;;;12.41;78.25
71126;BME280;58785;55.566;38.058;2023-05-23T01:40:54;100673.34;;;12.44;78.89
71126;BME280;58785;55.566;38.058;2023-05-23T01:43:21;100674.16;;;12.45;78.82
71126;BME280;58785;55.566;38.058;2023-05-23T01:45:47;100666.00;;;12.46;78.77
71126;BME280;58785;55.566;38.058;2023-05-23T01:48:14;100673.72;;;12.49;78.55
71126;BME280;58785;55.566;38.058;2023-05-23T01:50:41;100675.56;;;12.49;78.35
71126;BME280;58785;55.566;38.058;2023-05-23T01:53:11;100663.03;;;12.49;78.82
71126;BME280;58785;55.566;38.058;2023-05-23T01:55:39;100675.97;;;12.54;78.74
71126;BME280;58785;55.566;38.058;2023-05-23T01:58:05;100669.47;;;12.56;78.79
71126;BME280;58785;55.566;38.058;2023-05-23T02:00:31;100657.63;;;12.59;78.79
71126;BME280;58785;55.566;38.058;2023-05-23T02:02:57;100671.97;;;12.68;78.57
71126;BME280;58785;55.566;38.058;2023-05-23T02:05:23;100667.47;;;12.68;78.91
71126;BME280;58785;55.566;38.058;2023-05-23T02:07:49;100659.97;;;12.72;78.85
71126;BME280;58785;55.566;38.058;2023-05-23T02:10:15;100668.94;;;12.80;78.61
71126;BME280;58785;55.566;38.058;2023-05-23T02:12:40;100655.88;;;12.77;78.32
71126;BME280;58785;55.566;38.058;2023-05-23T02:15:07;100661.72;;;12.90;78.26
71126;BME280;58785;55.566;38.058;2023-05-23T02:17:33;100672.69;;;12.97;78.26
71126;BME280;58785;55.566;38.058;2023-05-23T02:19:59;100671.25;;;13.03;78.68
71126;BME280;58785;55.566;38.058;2023-05-23T02:22:25;100663.22;;;13.03;78.32
71126;BME280;58785;55.566;38.058;2023-05-23T02:24:51;100672.16;;;13.11;78.68
71126;BME280;58785;55.566;38.058;2023-05-23T02:27:17;100669.19;;;13.14;78.13
71126;BME280;58785;55.566;38.058;2023-05-23T02:29:43;100661.00;;;13.16;78.44
71126;BME280;58785;55.566;38.058;2023-05-23T02:32:08;100684.09;;;13.27;78.25
71126;BME280;58785;55.566;38.058;2023-05-23T02:34:34;100674.59;;;13.32;78.68
71126;BME280;58785;55.566;38.058;2023-05-23T02:37:00;100671.47;;;13.37;78.36
71126;BME280;58785;55.566;38.058;2023-05-23T02:39:26;100668.47;;;13.40;78.32
71126;BME280;58785;55.566;38.058;2023-05-23T02:41:51;100669.94;;;13.52;78.31
71126;BME280;58785;55.566;38.058;2023-05-23T02:44:17;100671.78;;;13.51;78.16
71126;BME280;58785;55.566;38.058;2023-05-23T02:46:47;100671.41;;;13.64;78.40
71126;BME280;58785;55.566;38.058;2023-05-23T02:49:12;100677.69;;;13.73;78.33
71126;BME280;58785;55.566;38.058;2023-05-23T02:51:38;100664.66;;;13.78;78.08
71126;BME280;58785;55.566;38.058;2023-05-23T02:54:03;100672.78;;;13.86;78.12
71126;BME280;58785;55.566;38.058;2023-05-23T02:56:29;100682.09;;;14.00;77.98
71126;BME280;58785;55.566;38.058;2023-05-23T02:58:55;100666.22;;;14.06;77.87
71126;BME280;58785;55.566;38.058;2023-05-23T03:01:20;100671.66;;;14.15;77.67
71126;BME280;58785;55.566;38.058;2023-05-23T03:03:46;100675.09;;;14.25;77.51
71126;BME280;58785;55.566;38.058;2023-05-23T03:06:12;100671.75;;;14.31;77.51
71126;BME280;58785;55.566;38.058;2023-05-23T03:08:42;100661.75;;;14.41;76.83
71126;BME280;58785;55.566;38.058;2023-05-23T03:11:08;100654.97;;;14.47;76.74
71126;BME280;58785;55.566;38.058;2023-05-23T03:13:34;100663.25;;;14.61;76.14
71126;BME280;58785;55.566;38.058;2023-05-23T03:16:01;100667.81;;;14.69;75.95
71126;BME280;58785;55.566;38.058;2023-05-23T03:18:27;100662.97;;;14.73;75.80
71126;BME280;58785;55.566;38.058;2023-05-23T03:20:52;100654.56;;;14.68;75.82
71126;BME280;58785;55.566;38.058;2023-05-23T03:23:18;100659.59;;;14.71;75.55
71126;BME280;58785;55.566;38.058;2023-05-23T03:25:44;100658.47;;;14.73;75.03
71126;BME280;58785;55.566;38.058;2023-05-23T03:28:10;100654.22;;;14.71;74.75
71126;BME280;58785;55.566;38.058;2023-05-23T03:30:39;100659.63;;;14.79;75.07
71126;BME280;58785;55.566;38.058;2023-05-23T03:33:05;100661.31;;;14.80;74.99
71126;BME280;58785;55.566;38.058;2023-05-23T03:35:31;100659.47;;;14.80;74.57
71126;BME280;58785;55.566;38.058;2023-05-23T03:37:57;100661.53;;;14.86;74.30
71126;BME280;58785;55.566;38.058;2023-05-23T03:40:23;100665.25;;;14.93;74.58
71126;BME280;58785;55.566;38.058;2023-05-23T03:43:00;100663.75;;;14.99;74.14
71126;BME280;58785;55.566;38.058;2023-05-23T03:45:26;100657.75;;;15.05;73.96
71126;BME280;58785;55.566;38.058;2023-05-23T03:47:52;100653.88;;;15.08;73.57
71126;BME280;58785;55.566;38.058;2023-05-23T03:50:18;100663.66;;;15.17;73.14
71126;BME280;58785;55.566;38.058;2023-05-23T03:52:43;100645.84;;;15.16;73.40
71126;BME280;58785;55.566;38.058;2023-05-23T03:55:09;100654.91;;;15.23;73.13
71126;BME280;58785;55.566;38.058;2023-05-23T03:57:35;100658.81;;;15.29;73.23
71126;BME280;58785;55.566;38.058;2023-05-23T04:00:02;100655.94;;;15.30;73.38
71126;BME280;58785;55.566;38.058;2023-05-23T04:02:32;100657.44;;;15.33;72.47
71126;BME280;58785;55.566;38.058;2023-05-23T04:04:57;100662.19;;;15.39;72.94
71126;BME280;58785;55.566;38.058;2023-05-23T04:07:23;100649.09;;;15.36;72.73
71126;BME280;58785;55.566;38.058;2023-05-23T04:09:51;100659.00;;;15.43;72.63
71126;BME280;58785;55.566;38.058;2023-05-23T04:12:16;100658.66;;;15.46;72.18
71126;BME280;58785;55.566;38.058;2023-05-23T04:14:42;100658.16;;;15.51;72.12
71126;BME280;58785;55.566;38.058;2023-05-23T04:17:08;100654.66;;;15.59;71.70
71126;BME280;58785;55.566;38.058;2023-05-23T04:19:34;100667.47;;;15.65;72.04
71126;BME280;58785;55.566;38.058;2023-05-23T04:22:00;100651.16;;;15.66;72.09
71126;BME280;58785;55.566;38.058;2023-05-23T04:24:25;100643.78;;;15.68;72.12
71126;BME280;58785;55.566;38.058;2023-05-23T04:26:51;100655.03;;;15.80;71.80
71126;BME280;58785;55.566;38.058;2023-05-23T04:29:17;100678.06;;;15.74;71.91
71126;BME280;58785;55.566;38.058;2023-05-23T04:31:42;100659.72;;;15.70;72.26
71126;BME280;58785;55.566;38.058;2023-05-23T04:34:10;100671.66;;;15.67;71.82
71126;BME280;58785;55.566;38.058;2023-05-23T04:36:36;100678.84;;;15.59;72.46
71126;BME280;58785;55.566;38.058;2023-05-23T04:39:06;100693.97;;;15.60;72.63
71126;BME280;58785;55.566;38.058;2023-05-23T04:41:32;100702.91;;;15.60;72.81
71126;BME280;58785;55.566;38.058;2023-05-23T04:43:57;100689.94;;;15.56;72.58
71126;BME280;58785;55.566;38.058;2023-05-23T04:46:23;100703.22;;;15.57;72.78
71126;BME280;58785;55.566;38.058;2023-05-23T04:48:52;100697.53;;;15.60;72.71
71126;BME280;58785;55.566;38.058;2023-05-23T04:51:23;100705.59;;;15.68;71.90
71126;BME280;58785;55.566;38.058;2023-05-23T04:53:50;100701.56;;;15.72;71.75
71126;BME280;58785;55.566;38.058;2023-05-23T04:56:16;100700.94;;;15.87;71.11
71126;BME280;58785;55.566;38.058;2023-05-23T04:58:46;100695.69;;;15.93;70.59
71126;BME280;58785;55.566;38.058;2023-05-23T05:01:12;100697.72;;;16.07;70.19
71126;BME280;58785;55.566;38.058;2023-05-23T05:03:39;100698.06;;;16.13;69.87
71126;BME280;58785;55.566;38.058;2023-05-23T05:06:05;100700.91;;;16.19;69.86
71126;BME280;58785;55.566;38.058;2023-05-23T05:08:31;100691.00;;;16.20;69.63
71126;BME280;58785;55.566;38.058;2023-05-23T05:10:57;100698.72;;;16.31;69.64
71126;BME280;58785;55.566;38.058;2023-05-23T05:13:23;100686.28;;;16.30;69.73
71126;BME280;58785;55.566;38.058;2023-05-23T05:15:49;100687.63;;;16.26;69.70
71126;BME280;58785;55.566;38.058;2023-05-23T05:18:17;100701.41;;;16.31;69.73
71126;BME280;58785;55.566;38.058;2023-05-23T05:20:43;100692.84;;;16.27;69.69
71126;BME280;58785;55.566;38.058;2023-05-23T05:23:09;100699.56;;;16.31;69.83
71126;BME280;58785;55.566;38.058;2023-05-23T05:25:35;100695.00;;;16.32;69.73
71126;BME280;58785;55.566;38.058;2023-05-23T05:28:03;100693.16;;;16.32;70.13
71126;BME280;58785;55.566;38.058;2023-05-23T05:30:32;100686.94;;;16.32;69.97
71126;BME280;58785;55.566;38.058;2023-05-23T05:33:01;100685.25;;;16.31;70.39
71126;BME280;58785;55.566;38.058;2023-05-23T05:35:31;100682.91;;;16.36;70.19
71126;BME280;58785;55.566;38.058;2023-05-23T05:37:58;100679.38;;;16.35;69.89
71126;BME280;58785;55.566;38.058;2023-05-23T05:40:24;100680.34;;;16.43;70.42
71126;BME280;58785;55.566;38.058;2023-05-23T05:42:49;100678.19;;;16.46;70.29
71126;BME280;58785;55.566;38.058;2023-05-23T05:45:15;100678.16;;;16.54;69.85
71126;BME280;58785;55.566;38.058;2023-05-23T05:47:41;100682.53;;;16.55;70.12
71126;BME280;58785;55.566;38.058;2023-05-23T05:50:07;100685.72;;;16.59;70.02
71126;BME280;58785;55.566;38.058;2023-05-23T05:52:34;100677.28;;;16.62;70.22
71126;BME280;58785;55.566;38.058;2023-05-23T05:55:07;100691.56;;;16.62;70.05
71126;BME280;58785;55.566;38.058;2023-05-23T05:57:36;100678.44;;;16.67;69.72
71126;BME280;58785;55.566;38.058;2023-05-23T06:02:37;100675.75;;;16.84;69.49
71126;BME280;58785;55.566;38.058;2023-05-23T06:05:04;100668.28;;;16.94;69.55
71126;BME280;58785;55.566;38.058;2023-05-23T06:07:33;100669.53;;;17.14;68.87
71126;BME280;58785;55.566;38.058;2023-05-23T06:09:58;100659.50;;;17.31;68.45
71126;BME280;58785;55.566;38.058;2023-05-23T06:12:24;100658.38;;;17.48;68.13
71126;BME280;58785;55.566;38.058;2023-05-23T06:14:50;100647.00;;;17.61;67.65
71126;BME280;58785;55.566;38.058;2023-05-23T06:17:15;100636.56;;;17.81;67.07
71126;BME280;58785;55.566;38.058;2023-05-23T06:19:41;100644.09;;;17.94;67.04
71126;BME280;58785;55.566;38.058;2023-05-23T06:22:06;100649.19;;;18.03;66.57
71126;BME280;58785;55.566;38.058;2023-05-23T06:24:32;100626.22;;;18.07;66.60
71126;BME280;58785;55.566;38.058;2023-05-23T06:26:58;100629.78;;;18.23;66.17
71126;BME280;58785;55.566;38.058;2023-05-23T06:29:23;100626.91;;;18.39;66.00
71126;BME280;58785;55.566;38.058;2023-05-23T06:31:49;100621.34;;;18.55;65.57
71126;BME280;58785;55.566;38.058;2023-05-23T06:34:15;100612.97;;;18.65;65.46
71126;BME280;58785;55.566;38.058;2023-05-23T06:36:41;100618.81;;;18.83;65.23
71126;BME280;58785;55.566;38.058;2023-05-23T06:39:08;100607.69;;;18.93;64.96
71126;BME280;58785;55.566;38.058;2023-05-23T06:41:37;100610.03;;;18.96;64.53
71126;BME280;58785;55.566;38.058;2023-05-23T06:44:03;100611.78;;;19.04;64.87
71126;BME280;58785;55.566;38.058;2023-05-23T06:46:29;100604.78;;;19.09;64.88
71126;BME280;58785;55.566;38.058;2023-05-23T06:52:36;100611.13;;;19.38;64.13
71126;BME280;58785;55.566;38.058;2023-05-23T06:55:01;100611.03;;;19.52;64.25
71126;BME280;58785;55.566;38.058;2023-05-23T06:57:29;100614.97;;;19.65;63.88
71126;BME280;58785;55.566;38.058;2023-05-23T06:59:55;100607.72;;;19.72;63.50
71126;BME280;58785;55.566;38.058;2023-05-23T07:02:20;100601.75;;;19.76;63.55
71126;BME280;58785;55.566;38.058;2023-05-23T07:04:46;100614.13;;;19.92;63.34
71126;BME280;58785;55.566;38.058;2023-05-23T07:07:12;100608.59;;;20.00;63.20
71126;BME280;58785;55.566;38.058;2023-05-23T07:09:38;100625.13;;;20.12;63.27
71126;BME280;58785;55.566;38.058;2023-05-23T07:12:05;100615.81;;;20.21;63.02
71126;BME280;58785;55.566;38.058;2023-05-23T07:14:30;100604.88;;;20.36;62.37
71126;BME280;58785;55.566;38.058;2023-05-23T07:16:56;100614.41;;;20.60;62.33
71126;BME280;58785;55.566;38.058;2023-05-23T07:19:22;100616.34;;;20.73;62.16
71126;BME280;58785;55.566;38.058;2023-05-23T07:21:47;100617.00;;;20.75;61.86
71126;BME280;58785;55.566;38.058;2023-05-23T07:24:13;100623.84;;;20.71;61.68
71126;BME280;58785;55.566;38.058;2023-05-23T07:26:39;100620.03;;;20.58;61.86
71126;BME280;58785;55.566;38.058;2023-05-23T07:29:05;100625.88;;;20.55;61.89
71126;BME280;58785;55.566;38.058;2023-05-23T07:31:31;100620.41;;;20.49;61.84
71126;BME280;58785;55.566;38.058;2023-05-23T07:33:57;100622.28;;;20.48;61.77
71126;BME280;58785;55.566;38.058;2023-05-23T07:36:23;100636.66;;;20.49;61.85
71126;BME280;58785;55.566;38.058;2023-05-23T07:38:48;100626.84;;;20.48;62.11
71126;BME280;58785;55.566;38.058;2023-05-23T07:41:14;100632.19;;;20.41;62.30
71126;BME280;58785;55.566;38.058;2023-05-23T07:43:40;100633.16;;;20.27;62.47
71126;BME280;58785;55.566;38.058;2023-05-23T07:46:05;100627.06;;;20.18;62.78
71126;BME280;58785;55.566;38.058;2023-05-23T07:48:32;100634.03;;;20.06;63.30
71126;BME280;58785;55.566;38.058;2023-05-23T07:50:57;100636.50;;;20.01;63.41
71126;BME280;58785;55.566;38.058;2023-05-23T07:53:23;100641.00;;;19.94;63.79
71126;BME280;58785;55.566;38.058;2023-05-23T07:55:49;100637.63;;;19.85;64.27
71126;BME280;58785;55.566;38.058;2023-05-23T07:58:14;100640.00;;;19.73;64.30
71126;BME280;58785;55.566;38.058;2023-05-23T08:00:40;100643.03;;;19.64;65.05
71126;BME280;58785;55.566;38.058;2023-05-23T08:03:06;100636.00;;;19.48;65.39
71126;BME280;58785;55.566;38.058;2023-05-23T08:05:32;100636.38;;;19.45;65.64
71126;BME280;58785;55.566;38.058;2023-05-23T08:07:58;100649.63;;;19.40;65.96
71126;BME280;58785;55.566;38.058;2023-05-23T08:10:24;100640.78;;;19.31;66.53
71126;BME280;58785;55.566;38.058;2023-05-23T08:12:53;100640.53;;;19.26;66.58
71126;BME280;58785;55.566;38.058;2023-05-23T08:15:19;100640.47;;;19.19;66.95
71126;BME280;58785;55.566;38.058;2023-05-23T08:17:45;100648.56;;;19.19;67.47
71126;BME280;58785;55.566;38.058;2023-05-23T08:20:11;100635.16;;;19.11;67.80
71126;BME280;58785;55.566;38.058;2023-05-23T08:22:37;100636.38;;;19.09;68.15
71126;BME280;58785;55.566;38.058;2023-05-23T08:25:03;100629.69;;;19.05;68.30
71126;BME280;58785;55.566;38.058;2023-05-23T08:27:31;100617.66;;;19.07;68.61
71126;BME280;58785;55.566;38.058;2023-05-23T08:29:58;100619.13;;;19.10;68.58
71126;BME280;58785;55.566;38.058;2023-05-23T08:32:24;100620.59;;;19.12;68.75
71126;BME280;58785;55.566;38.058;2023-05-23T08:34:49;100624.81;;;19.15;68.31
71126;BME280;58785;55.566;38.058;2023-05-23T08:37:15;100629.00;;;19.17;68.53
71126;BME280;58785;55.566;38.058;2023-05-23T08:39:41;100625.72;;;19.22;68.25
71126;BME280;58785;55.566;38.058;2023-05-23T08:42:06;100637.00;;;19.26;68.21
71126;BME280;58785;55.566;38.058;2023-05-23T08:44:32;100629.72;;;19.26;68.52
71126;BME280;58785;55.566;38.058;2023-05-23T08:47:02;100617.59;;;19.22;68.27
71126;BME280;58785;55.566;38.058;2023-05-23T08:49:29;100632.47;;;19.33;68.33
71126;BME280;58785;55.566;38.058;2023-05-23T08:52:00;100635.66;;;19.36;68.20
71126;BME280;58785;55.566;38.058;2023-05-23T08:54:26;100632.13;;;19.36;67.93
71126;BME280;58785;55.566;38.058;2023-05-23T08:56:53;100644.31;;;19.46;67.98
71126;BME280;58785;55.566;38.058;2023-05-23T08:59:20;100645.50;;;19.59;67.99
71126;BME280;58785;55.566;38.058;2023-05-23T09:01:47;100649.09;;;19.66;67.74
71126;BME280;58785;55.566;38.058;2023-05-23T09:04:13;100637.63;;;19.64;67.97
71126;BME280;58785;55.566;38.058;2023-05-23T09:06:39;100648.84;;;19.61;67.89
71126;BME280;58785;55.566;38.058;2023-05-23T09:09:04;100648.59;;;19.56;68.01
71126;BME280;58785;55.566;38.058;2023-05-23T09:11:31;100639.91;;;19.45;68.13
71126;BME280;58785;55.566;38.058;2023-05-23T09:14:00;100646.59;;;19.49;68.46
71126;BME280;58785;55.566;38.058;2023-05-23T09:16:31;100645.66;;;19.36;68.83
71126;BME280;58785;55.566;38.058;2023-05-23T09:18:58;100656.56;;;19.28;69.08
71126;BME280;58785;55.566;38.058;2023-05-23T09:21:24;100648.31;;;19.14;69.58
71126;BME280;58785;55.566;38.058;2023-05-23T09:23:51;100656.88;;;19.03;69.97
71126;BME280;58785;55.566;38.058;2023-05-23T09:26:16;100662.72;;;18.85;70.58
71126;BME280;58785;55.566;38.058;2023-05-23T09:28:43;100651.34;;;18.75;70.74
71126;BME280;58785;55.566;38.058;2023-05-23T09:31:09;100660.50;;;18.74;71.27
71126;BME280;58785;55.566;38.058;2023-05-23T09:33:47;100660.19;;;18.69;71.60
71126;BME280;58785;55.566;38.058;2023-05-23T09:36:14;100664.31;;;18.65;71.91
71126;BME280;58785;55.566;38.058;2023-05-23T09:38:42;100657.03;;;18.65;72.20
71126;BME280;58785;55.566;38.058;2023-05-23T09:41:08;100650.94;;;18.63;72.22
71126;BME280;58785;55.566;38.058;2023-05-23T09:43:37;100652.97;;;18.61;72.60
71126;BME280;58785;55.566;38.058;2023-05-23T09:46:08;100657.88;;;18.66;73.04
71126;BME280;58785;55.566;38.058;2023-05-23T09:48:34;100656.00;;;18.66;72.93
71126;BME280;58785;55.566;38.058;2023-05-23T09:51:04;100654.66;;;18.62;73.18
71126;BME280;58785;55.566;38.058;2023-05-23T09:53:30;100659.41;;;18.60;73.32
71126;BME280;58785;55.566;38.058;2023-05-23T09:55:58;100653.75;;;18.55;73.73
71126;BME280;58785;55.566;38.058;2023-05-23T09:58:25;100648.25;;;18.49;74.04
71126;BME280;58785;55.566;38.058;2023-05-23T10:00:52;100648.81;;;18.44;74.51
71126;BME280;58785;55.566;38.058;2023-05-23T10:03:25;100660.63;;;18.43;74.32
71126;BME280;58785;55.566;38.058;2023-05-23T10:06:09;100659.97;;;18.41;74.59
71126;BME280;58785;55.566;38.058;2023-05-23T10:09:01;100662.47;;;18.43;74.46
71126;BME280;58785;55.566;38.058;2023-05-23T10:14:11;100651.41;;;18.37;74.57
71126;BME280;58785;55.566;38.058;2023-05-23T10:19:27;100657.56;;;18.46;74.32
71126;BME280;58785;55.566;38.058;2023-05-23T10:22:01;100662.59;;;18.49;74.01
71126;BME280;58785;55.566;38.058;2023-05-23T10:24:28;100660.19;;;18.54;74.08
71126;BME280;58785;55.566;38.058;2023-05-23T10:26:54;100656.22;;;18.65;73.89
71126;BME280;58785;55.566;38.058;2023-05-23T10:29:21;100657.03;;;18.80;73.70
71126;BME280;58785;55.566;38.058;2023-05-23T10:31:48;100655.69;;;18.91;73.57
71126;BME280;58785;55.566;38.058;2023-05-23T10:34:39;100661.00;;;18.99;73.25
71126;BME280;58785;55.566;38.058;2023-05-23T10:37:07;100661.00;;;18.99;72.98
71126;BME280;58785;55.566;38.058;2023-05-23T10:42:33;100664.66;;;19.06;73.09
71126;BME280;58785;55.566;38.058;2023-05-23T10:45:21;100660.06;;;19.07;72.95
71126;BME280;58785;55.566;38.058;2023-05-23T10:47:49;100660.13;;;19.13;72.86
71126;BME280;58785;55.566;38.058;2023-05-23T10:52:59;100658.03;;;19.45;72.33
71126;BME280;58785;55.566;38.058;2023-05-23T10:55:25;100661.41;;;19.53;71.93
71126;BME280;58785;55.566;38.058;2023-05-23T11:00:34;100644.34;;;19.53;71.46
71126;BME280;58785;55.566;38.058;2023-05-23T11:03:04;100652.56;;;19.60;71.53
71126;BME280;58785;55.566;38.058;2023-05-23T11:05:33;100658.78;;;19.75;71.24
71126;BME280;58785;55.566;38.058;2023-05-23T11:08:07;100656.09;;;19.81;70.75
71126;BME280;58785;55.566;38.058;2023-05-23T11:10:58;100657.00;;;19.89;70.58
71126;BME280;58785;55.566;38.058;2023-05-23T11:13:25;100644.63;;;20.01;70.59
71126;BME280;58785;55.566;38.058;2023-05-23T11:15:51;100649.50;;;20.12;70.49
71126;BME280;58785;55.566;38.058;2023-05-23T11:18:22;100645.41;;;20.23;69.91
71126;BME280;58785;55.566;38.058;2023-05-23T11:20:51;100636.56;;;20.35;69.65
71126;BME280;58785;55.566;38.058;2023-05-23T11:23:18;100622.69;;;20.52;69.41
71126;BME280;58785;55.566;38.058;2023-05-23T11:25:47;100630.94;;;20.65;68.77
71126;BME280;58785;55.566;38.058;2023-05-23T11:28:14;100634.31;;;20.80;68.49
71126;BME280;58785;55.566;38.058;2023-05-23T11:30:40;100633.94;;;20.90;68.18
71126;BME280;58785;55.566;38.058;2023-05-23T11:33:07;100613.75;;;20.99;67.57
71126;BME280;58785;55.566;38.058;2023-05-23T11:35:45;100602.69;;;21.01;67.46
71126;BME280;58785;55.566;38.058;2023-05-23T11:38:13;100608.13;;;21.01;67.36
71126;BME280;58785;55.566;38.058;2023-05-23T11:40:41;100608.53;;;21.04;67.08
71126;BME280;58785;55.566;38.058;2023-05-23T11:43:09;100608.81;;;21.16;67.13
71126;BME280;58785;55.566;38.058;2023-05-23T11:45:36;100607.59;;;21.25;66.62
71126;BME280;58785;55.566;38.058;2023-05-23T11:48:20;100597.56;;;21.26;66.07
71126;BME280;58785;55.566;38.058;2023-05-23T11:50:52;100600.22;;;21.12;66.39
71126;BME280;58785;55.566;38.058;2023-05-23T11:53:21;100600.16;;;20.92;66.63
71126;BME280;58785;55.566;38.058;2023-05-23T11:55:54;100588.47;;;20.85;66.80
71126;BME280;58785;55.566;38.058;2023-05-23T11:58:21;100581.81;;;20.88;66.86
71126;BME280;58785;55.566;38.058;2023-05-23T12:00:47;100590.41;;;20.98;66.55
71126;BME280;58785;55.566;38.058;2023-05-23T12:03:13;100583.31;;;20.97;66.27
71126;BME280;58785;55.566;38.058;2023-05-23T12:20:41;100572.50;;;21.17;65.10
71126;BME280;58785;55.566;38.058;2023-05-23T12:23:07;100580.03;;;21.15;65.47
71126;BME280;58785;55.566;38.058;2023-05-23T12:25:39;100581.66;;;21.09;65.41
71126;BME280;58785;55.566;38.058;2023-05-23T12:28:06;100568.28;;;21.01;65.66
71126;BME280;58785;55.566;38.058;2023-05-23T12:30:41;100575.75;;;20.92;65.61
71126;BME280;58785;55.566;38.058;2023-05-23T12:33:08;100582.22;;;20.91;65.43
71126;BME280;58785;55.566;38.058;2023-05-23T12:35:34;100580.56;;;20.90;65.31
71126;BME280;58785;55.566;38.058;2023-05-23T12:38:01;100572.22;;;20.92;65.04
71126;BME280;58785;55.566;38.058;2023-05-23T12:40:27;100571.41;;;20.98;64.75
71126;BME280;58785;55.566;38.058;2023-05-23T12:42:54;100566.63;;;21.00;64.75
71126;BME280;58785;55.566;38.058;2023-05-23T12:45:31;100571.44;;;21.05;64.65
71126;BME280;58785;55.566;38.058;2023-05-23T12:47:58;100566.84;;;21.05;64.36
71126;BME280;58785;55.566;38.058;2023-05-23T12:50:24;100568.72;;;21.11;64.28
71126;BME280;58785;55.566;38.058;2023-05-23T12:52:50;100565.81;;;21.13;64.08
71126;BME280;58785;55.566;38.058;2023-05-23T12:55:17;100567.72;;;21.26;64.20
71126;BME280;58785;55.566;38.058;2023-05-23T12:57:43;100558.09;;;21.23;63.92
71126;BME280;58785;55.566;38.058;2023-05-23T13:00:09;100564.19;;;21.25;63.94
71126;BME280;58785;55.566;38.058;2023-05-23T13:02:37;100565.88;;;21.26;63.88
71126;BME280;58785;55.566;38.058;2023-05-23T13:05:05;100553.16;;;21.27;63.95
71126;BME280;58785;55.566;38.058;2023-05-23T13:07:32;100553.38;;;21.38;64.11
71126;BME280;58785;55.566;38.058;2023-05-23T13:09:58;100547.72;;;21.33;64.22
71126;BME280;58785;55.566;38.058;2023-05-23T13:12:24;100548.94;;;21.24;64.55
71126;BME280;58785;55.566;38.058;2023-05-23T13:14:50;100551.22;;;21.20;65.08
71126;BME280;58785;55.566;38.058;2023-05-23T13:17:16;100558.31;;;21.21;64.97
71126;BME280;58785;55.566;38.058;2023-05-23T13:19:42;100554.16;;;21.19;65.19